sensor_id;sensor_type;location;lat;lon;timestamp;temperature;humidity
78649;DHT22;67962;47.310;9.642;2024-02-16T00:01:57;11.10;62.80
78649;DHT22;67962;47.310;9.642;2024-02-16T00:04:23;11.00;63.00
78649;DHT22;67962;47.310;9.642;2024-02-16T00:06:48;10.90;63.40
78649;DHT22;67962;47.310;9.642;2024-02-16T00:09:14;11.00;63.70
78649;DHT22;67962;47.310;9.642;2024-02-16T00:11:40;11.00;63.60
78649;DHT22;67962;47.310;9.642;2024-02-16T00:14:05;11.10;63.60
78649;DHT22;67962;47.310;9.642;2024-02-16T00:16:31;11.10;63.50
78649;DHT22;67962;47.310;9.642;2024-02-16T00:18:57;11.00;63.30
78649;DHT22;67962;47.310;9.642;2024-02-16T00:21:23;10.90;63.70
78649;DHT22;67962;47.310;9.642;2024-02-16T00:23:49;10.80;64.30
78649;DHT22;67962;47.310;9.642;2024-02-16T00:26:15;10.80;64.60
78649;DHT22;67962;47.310;9.642;2024-02-16T00:28:41;10.80;64.60
78649;DHT22;67962;47.310;9.642;2024-02-16T00:31:07;10.90;64.60
78649;DHT22;67962;47.310;9.642;2024-02-16T00:33:33;10.90;64.50
78649;DHT22;67962;47.310;9.642;2024-02-16T00:35:58;11.00;64.40
78649;DHT22;67962;47.310;9.642;2024-02-16T00:38:24;10.90;64.40
78649;DHT22;67962;47.310;9.642;2024-02-16T00:40:50;10.90;64.60
78649;DHT22;67962;47.310;9.642;2024-02-16T00:43:16;10.90;64.80
78649;DHT22;67962;47.310;9.642;2024-02-16T00:45:43;10.80;65.10
78649;DHT22;67962;47.310;9.642;2024-02-16T00:48:10;10.80;65.30
78649;DHT22;67962;47.310;9.642;2024-02-16T00:50:36;10.90;65.30
78649;DHT22;67962;47.310;9.642;2024-02-16T00:53:02;10.80;65.20
78649;DHT22;67962;47.310;9.642;2024-02-16T00:55:28;10.80;65.20
78649;DHT22;67962;47.310;9.642;2024-02-16T00:57:54;10.80;65.30
78649;DHT22;67962;47.310;9.642;2024-02-16T01:00:19;10.70;65.60
78649;DHT22;67962;47.310;9.642;2024-02-16T01:02:45;10.70;65.60
78649;DHT22;67962;47.310;9.642;2024-02-16T01:05:11;10.70;65.70
78649;DHT22;67962;47.310;9.642;2024-02-16T01:07:37;10.70;65.40
78649;DHT22;67962;47.310;9.642;2024-02-16T01:10:02;10.70;65.60
78649;DHT22;67962;47.310;9.642;2024-02-16T01:12:31;10.70;65.90
78649;DHT22;67962;47.310;9.642;2024-02-16T01:14:57;10.60;66.10
78649;DHT22;67962;47.310;9.642;2024-02-16T01:17:22;10.60;66.20
78649;DHT22;67962;47.310;9.642;2024-02-16T01:19:48;10.60;66.30
78649;DHT22;67962;47.310;9.642;2024-02-16T01:22:14;10.60;66.40
78649;DHT22;67962;47.310;9.642;2024-02-16T01:24:39;10.70;66.30
78649;DHT22;67962;47.310;9.642;2024-02-16T01:27:05;10.70;66.20
78649;DHT22;67962;47.310;9.642;2024-02-16T01:29:31;10.70;66.00
78649;DHT22;67962;47.310;9.642;2024-02-16T01:31:58;10.70;65.90
78649;DHT22;67962;47.310;9.642;2024-02-16T01:34:24;10.70;66.10
78649;DHT22;67962;47.310;9.642;2024-02-16T01:36:49;10.60;66.20
78649;DHT22;67962;47.310;9.642;2024-02-16T01:39:15;10.50;66.60
78649;DHT22;67962;47.310;9.642;2024-02-16T01:41:40;10.40;66.70
78649;DHT22;67962;47.310;9.642;2024-02-16T01:44:06;10.50;66.80
78649;DHT22;67962;47.310;9.642;2024-02-16T01:46:34;10.40;66.90
78649;DHT22;67962;47.310;9.642;2024-02-16T01:49:00;10.40;67.10
78649;DHT22;67962;47.310;9.642;2024-02-16T01:51:26;10.40;67.30
78649;DHT22;67962;47.310;9.642;2024-02-16T01:53:52;10.40;67.20
78649;DHT22;67962;47.310;9.642;2024-02-16T01:56:20;10.40;68.00
78649;DHT22;67962;47.310;9.642;2024-02-16T01:58:47;10.50;67.10
78649;DHT22;67962;47.310;9.642;2024-02-16T02:01:13;10.40;67.10
78649;DHT22;67962;47.310;9.642;2024-02-16T02:03:39;10.40;67.20
78649;DHT22;67962;47.310;9.642;2024-02-16T02:06:04;10.40;67.30
78649;DHT22;67962;47.310;9.642;2024-02-16T02:08:30;10.40;67.30
78649;DHT22;67962;47.310;9.642;2024-02-16T02:10:56;10.30;67.50
78649;DHT22;67962;47.310;9.642;2024-02-16T02:13:22;10.30;67.50
78649;DHT22;67962;47.310;9.642;2024-02-16T02:15:48;10.20;67.60
78649;DHT22;67962;47.310;9.642;2024-02-16T02:18:13;10.20;68.50
78649;DHT22;67962;47.310;9.642;2024-02-16T02:20:39;10.30;67.60
78649;DHT22;67962;47.310;9.642;2024-02-16T02:23:05;10.30;67.50
78649;DHT22;67962;47.310;9.642;2024-02-16T02:25:31;10.20;67.40
78649;DHT22;67962;47.310;9.642;2024-02-16T02:27:56;10.20;67.30
78649;DHT22;67962;47.310;9.642;2024-02-16T02:30:22;10.20;67.20
78649;DHT22;67962;47.310;9.642;2024-02-16T02:32:49;10.30;67.20
78649;DHT22;67962;47.310;9.642;2024-02-16T02:35:16;10.30;67.20
78649;DHT22;67962;47.310;9.642;2024-02-16T02:37:43;10.20;67.00
78649;DHT22;67962;47.310;9.642;2024-02-16T02:40:09;10.10;67.30
78649;DHT22;67962;47.310;9.642;2024-02-16T02:42:35;10.10;67.50
78649;DHT22;67962;47.310;9.642;2024-02-16T02:45:02;10.00;67.30
78649;DHT22;67962;47.310;9.642;2024-02-16T02:47:28;9.90;67.80
78649;DHT22;67962;47.310;9.642;2024-02-16T02:49:53;9.70;68.20
78649;DHT22;67962;47.310;9.642;2024-02-16T02:52:20;9.80;68.50
78649;DHT22;67962;47.310;9.642;2024-02-16T02:54:46;9.70;68.60
78649;DHT22;67962;47.310;9.642;2024-02-16T02:57:12;9.70;68.90
78649;DHT22;67962;47.310;9.642;2024-02-16T02:59:38;9.70;68.90
78649;DHT22;67962;47.310;9.642;2024-02-16T03:02:04;9.70;68.90
78649;DHT22;67962;47.310;9.642;2024-02-16T03:04:29;9.70;68.80
78649;DHT22;67962;47.310;9.642;2024-02-16T03:06:55;9.80;68.80
78649;DHT22;67962;47.310;9.642;2024-02-16T03:09:21;9.80;68.50
78649;DHT22;67962;47.310;9.642;2024-02-16T03:11:48;9.80;68.40
78649;DHT22;67962;47.310;9.642;2024-02-16T03:14:15;9.90;68.30
78649;DHT22;67962;47.310;9.642;2024-02-16T03:16:41;10.00;68.10
78649;DHT22;67962;47.310;9.642;2024-02-16T03:19:07;9.90;67.70
78649;DHT22;67962;47.310;9.642;2024-02-16T03:21:35;9.80;67.80
78649;DHT22;67962;47.310;9.642;2024-02-16T03:24:04;9.80;67.90
78649;DHT22;67962;47.310;9.642;2024-02-16T03:26:30;9.80;67.90
78649;DHT22;67962;47.310;9.642;2024-02-16T03:28:57;9.80;67.90
78649;DHT22;67962;47.310;9.642;2024-02-16T03:31:24;9.70;68.20
78649;DHT22;67962;47.310;9.642;2024-02-16T03:33:50;9.70;68.40
78649;DHT22;67962;47.310;9.642;2024-02-16T03:36:19;9.70;68.30
78649;DHT22;67962;47.310;9.642;2024-02-16T03:38:46;9.60;68.20
78649;DHT22;67962;47.310;9.642;2024-02-16T03:41:19;9.50;68.30
78649;DHT22;67962;47.310;9.642;2024-02-16T03:43:45;9.50;68.60
78649;DHT22;67962;47.310;9.642;2024-02-16T03:46:10;9.60;68.40
78649;DHT22;67962;47.310;9.642;2024-02-16T03:48:36;9.60;68.30
78649;DHT22;67962;47.310;9.642;2024-02-16T03:51:02;9.60;68.30
78649;DHT22;67962;47.310;9.642;2024-02-16T03:53:31;9.70;68.10
78649;DHT22;67962;47.310;9.642;2024-02-16T03:55:57;9.70;68.80
78649;DHT22;67962;47.310;9.642;2024-02-16T03:58:23;9.60;68.00
78649;DHT22;67962;47.310;9.642;2024-02-16T04:00:49;9.50;68.40
78649;DHT22;67962;47.310;9.642;2024-02-16T04:03:15;9.50;68.80
78649;DHT22;67962;47.310;9.642;2024-02-16T04:05:41;9.40;68.70
78649;DHT22;67962;47.310;9.642;2024-02-16T04:08:07;9.50;68.80
78649;DHT22;67962;47.310;9.642;2024-02-16T04:10:34;9.60;68.60
78649;DHT22;67962;47.310;9.642;2024-02-16T04:13:01;9.50;68.50
78649;DHT22;67962;47.310;9.642;2024-02-16T04:15:27;9.50;68.60
78649;DHT22;67962;47.310;9.642;2024-02-16T04:17:53;9.40;68.60
78649;DHT22;67962;47.310;9.642;2024-02-16T04:20:19;9.30;68.90
78649;DHT22;67962;47.310;9.642;2024-02-16T04:22:45;9.40;69.10
78649;DHT22;67962;47.310;9.642;2024-02-16T04:25:11;9.40;68.60
78649;DHT22;67962;47.310;9.642;2024-02-16T04:27:37;9.40;68.60
78649;DHT22;67962;47.310;9.642;2024-02-16T04:30:04;9.40;68.60
78649;DHT22;67962;47.310;9.642;2024-02-16T04:32:30;9.40;68.60
78649;DHT22;67962;47.310;9.642;2024-02-16T04:34:56;9.50;68.40
78649;DHT22;67962;47.310;9.642;2024-02-16T04:37:23;9.40;68.20
78649;DHT22;67962;47.310;9.642;2024-02-16T04:39:49;9.20;68.40
78649;DHT22;67962;47.310;9.642;2024-02-16T04:42:15;9.20;68.50
78649;DHT22;67962;47.310;9.642;2024-02-16T04:44:40;9.20;68.60
78649;DHT22;67962;47.310;9.642;2024-02-16T04:47:06;9.20;68.60
78649;DHT22;67962;47.310;9.642;2024-02-16T04:49:32;9.20;68.60
78649;DHT22;67962;47.310;9.642;2024-02-16T04:51:58;9.30;68.30
78649;DHT22;67962;47.310;9.642;2024-02-16T04:54:24;9.30;68.10
78649;DHT22;67962;47.310;9.642;2024-02-16T04:56:50;9.20;67.90
78649;DHT22;67962;47.310;9.642;2024-02-16T04:59:19;9.00;68.30
78649;DHT22;67962;47.310;9.642;2024-02-16T05:01:44;9.00;68.50
78649;DHT22;67962;47.310;9.642;2024-02-16T05:04:10;9.00;68.50
78649;DHT22;67962;47.310;9.642;2024-02-16T05:06:45;8.90;68.30
78649;DHT22;67962;47.310;9.642;2024-02-16T05:09:12;8.80;68.70
78649;DHT22;67962;47.310;9.642;2024-02-16T05:11:37;8.80;69.00
78649;DHT22;67962;47.310;9.642;2024-02-16T05:14:03;8.90;68.70
78649;DHT22;67962;47.310;9.642;2024-02-16T05:16:29;8.90;68.60
78649;DHT22;67962;47.310;9.642;2024-02-16T05:18:57;8.90;68.60
78649;DHT22;67962;47.310;9.642;2024-02-16T05:21:23;8.90;68.30
78649;DHT22;67962;47.310;9.642;2024-02-16T05:23:49;8.90;68.30
78649;DHT22;67962;47.310;9.642;2024-02-16T05:26:15;8.80;68.60
78649;DHT22;67962;47.310;9.642;2024-02-16T05:28:41;8.60;69.00
78649;DHT22;67962;47.310;9.642;2024-02-16T05:31:14;8.60;69.50
78649;DHT22;67962;47.310;9.642;2024-02-16T05:33:41;8.60;69.60
78649;DHT22;67962;47.310;9.642;2024-02-16T05:36:07;8.60;69.50
78649;DHT22;67962;47.310;9.642;2024-02-16T05:38:34;8.60;69.40
78649;DHT22;67962;47.310;9.642;2024-02-16T05:41:09;8.60;69.10
78649;DHT22;67962;47.310;9.642;2024-02-16T05:43:36;8.60;69.20
78649;DHT22;67962;47.310;9.642;2024-02-16T05:46:03;8.60;69.00
78649;DHT22;67962;47.310;9.642;2024-02-16T05:48:34;8.50;68.90
78649;DHT22;67962;47.310;9.642;2024-02-16T05:51:04;8.50;69.10
78649;DHT22;67962;47.310;9.642;2024-02-16T05:53:31;8.50;68.70
78649;DHT22;67962;47.310;9.642;2024-02-16T05:55:57;8.40;68.70
78649;DHT22;67962;47.310;9.642;2024-02-16T05:58:24;8.40;69.00
78649;DHT22;67962;47.310;9.642;2024-02-16T06:00:50;8.40;69.20
78649;DHT22;67962;47.310;9.642;2024-02-16T06:03:15;8.40;69.20
78649;DHT22;67962;47.310;9.642;2024-02-16T06:05:41;8.40;69.10
78649;DHT22;67962;47.310;9.642;2024-02-16T06:08:10;8.50;69.00
78649;DHT22;67962;47.310;9.642;2024-02-16T06:10:36;8.50;68.90
78649;DHT22;67962;47.310;9.642;2024-02-16T06:13:02;8.50;68.90
78649;DHT22;67962;47.310;9.642;2024-02-16T06:15:28;8.60;68.90
78649;DHT22;67962;47.310;9.642;2024-02-16T06:17:53;8.60;68.90
78649;DHT22;67962;47.310;9.642;2024-02-16T06:20:19;8.70;68.80
78649;DHT22;67962;47.310;9.642;2024-02-16T06:22:45;8.70;68.70
78649;DHT22;67962;47.310;9.642;2024-02-16T06:25:11;8.70;68.60
78649;DHT22;67962;47.310;9.642;2024-02-16T06:27:36;8.50;68.70
78649;DHT22;67962;47.310;9.642;2024-02-16T06:30:03;8.60;68.90
78649;DHT22;67962;47.310;9.642;2024-02-16T06:32:29;8.60;68.70
78649;DHT22;67962;47.310;9.642;2024-02-16T06:34:57;8.60;68.50
78649;DHT22;67962;47.310;9.642;2024-02-16T06:37:22;8.60;68.60
78649;DHT22;67962;47.310;9.642;2024-02-16T06:39:48;8.70;68.70
78649;DHT22;67962;47.310;9.642;2024-02-16T06:42:14;8.70;68.60
78649;DHT22;67962;47.310;9.642;2024-02-16T06:44:40;8.80;68.10
78649;DHT22;67962;47.310;9.642;2024-02-16T06:47:06;8.80;68.20
78649;DHT22;67962;47.310;9.642;2024-02-16T06:49:32;8.80;68.20
78649;DHT22;67962;47.310;9.642;2024-02-16T06:51:58;8.90;68.20
78649;DHT22;67962;47.310;9.642;2024-02-16T06:54:23;8.90;67.70
78649;DHT22;67962;47.310;9.642;2024-02-16T06:56:52;9.00;67.70
78649;DHT22;67962;47.310;9.642;2024-02-16T06:59:18;9.00;67.70
78649;DHT22;67962;47.310;9.642;2024-02-16T07:01:45;8.90;68.10
78649;DHT22;67962;47.310;9.642;2024-02-16T07:04:11;8.80;68.40
78649;DHT22;67962;47.310;9.642;2024-02-16T07:06:36;8.80;68.50
78649;DHT22;67962;47.310;9.642;2024-02-16T07:09:02;8.70;68.40
78649;DHT22;67962;47.310;9.642;2024-02-16T07:11:28;8.70;68.70
78649;DHT22;67962;47.310;9.642;2024-02-16T07:13:54;8.80;68.50
78649;DHT22;67962;47.310;9.642;2024-02-16T07:16:19;8.90;68.50
78649;DHT22;67962;47.310;9.642;2024-02-16T07:18:45;8.90;68.70
78649;DHT22;67962;47.310;9.642;2024-02-16T07:21:11;8.80;68.60
78649;DHT22;67962;47.310;9.642;2024-02-16T07:23:37;8.80;68.90
78649;DHT22;67962;47.310;9.642;2024-02-16T07:26:03;8.90;69.10
78649;DHT22;67962;47.310;9.642;2024-02-16T07:28:29;8.90;69.20
78649;DHT22;67962;47.310;9.642;2024-02-16T07:30:56;9.10;68.90
78649;DHT22;67962;47.310;9.642;2024-02-16T07:33:21;9.30;68.80
78649;DHT22;67962;47.310;9.642;2024-02-16T07:35:50;9.50;68.30
78649;DHT22;67962;47.310;9.642;2024-02-16T07:38:16;9.70;67.40
78649;DHT22;67962;47.310;9.642;2024-02-16T07:40:42;9.80;66.90
78649;DHT22;67962;47.310;9.642;2024-02-16T07:43:08;9.90;67.20
78649;DHT22;67962;47.310;9.642;2024-02-16T07:45:34;10.10;67.30
78649;DHT22;67962;47.310;9.642;2024-02-16T07:47:59;10.20;67.20
78649;DHT22;67962;47.310;9.642;2024-02-16T07:50:30;10.30;66.80
78649;DHT22;67962;47.310;9.642;2024-02-16T07:52:56;10.30;66.10
78649;DHT22;67962;47.310;9.642;2024-02-16T07:55:21;10.20;66.70
78649;DHT22;67962;47.310;9.642;2024-02-16T07:57:50;10.30;67.20
78649;DHT22;67962;47.310;9.642;2024-02-16T08:00:15;10.30;66.70
78649;DHT22;67962;47.310;9.642;2024-02-16T08:02:41;10.40;66.70
78649;DHT22;67962;47.310;9.642;2024-02-16T08:05:12;10.50;66.80
78649;DHT22;67962;47.310;9.642;2024-02-16T08:07:39;10.70;66.00
78649;DHT22;67962;47.310;9.642;2024-02-16T08:10:06;10.90;65.40
78649;DHT22;67962;47.310;9.642;2024-02-16T08:12:32;11.00;64.40
78649;DHT22;67962;47.310;9.642;2024-02-16T08:15:04;11.20;64.40
78649;DHT22;67962;47.310;9.642;2024-02-16T08:17:32;11.40;64.30
78649;DHT22;67962;47.310;9.642;2024-02-16T08:19:58;11.70;64.30
78649;DHT22;67962;47.310;9.642;2024-02-16T08:22:24;11.90;64.10
78649;DHT22;67962;47.310;9.642;2024-02-16T08:24:50;12.10;63.90
78649;DHT22;67962;47.310;9.642;2024-02-16T08:27:16;12.30;64.00
78649;DHT22;67962;47.310;9.642;2024-02-16T08:29:42;12.50;63.60
78649;DHT22;67962;47.310;9.642;2024-02-16T08:32:08;12.70;62.90
78649;DHT22;67962;47.310;9.642;2024-02-16T08:34:35;12.80;62.50
78649;DHT22;67962;47.310;9.642;2024-02-16T08:37:03;13.10;62.30
78649;DHT22;67962;47.310;9.642;2024-02-16T08:39:30;13.30;61.80
78649;DHT22;67962;47.310;9.642;2024-02-16T08:41:58;13.60;60.90
78649;DHT22;67962;47.310;9.642;2024-02-16T08:44:25;13.80;60.00
78649;DHT22;67962;47.310;9.642;2024-02-16T08:46:52;13.90;58.90
78649;DHT22;67962;47.310;9.642;2024-02-16T08:49:19;14.00;59.30
78649;DHT22;67962;47.310;9.642;2024-02-16T08:51:44;14.30;58.80
78649;DHT22;67962;47.310;9.642;2024-02-16T08:54:10;14.40;58.50
78649;DHT22;67962;47.310;9.642;2024-02-16T08:56:36;14.40;58.60
78649;DHT22;67962;47.310;9.642;2024-02-16T08:59:04;14.40;57.20
78649;DHT22;67962;47.310;9.642;2024-02-16T09:03:57;14.40;57.00
78649;DHT22;67962;47.310;9.642;2024-02-16T09:06:22;14.50;57.10
78649;DHT22;67962;47.310;9.642;2024-02-16T09:08:48;14.70;56.80
78649;DHT22;67962;47.310;9.642;2024-02-16T09:11:14;14.90;56.40
78649;DHT22;67962;47.310;9.642;2024-02-16T09:13:40;15.00;55.50
78649;DHT22;67962;47.310;9.642;2024-02-16T09:16:06;15.20;54.80
78649;DHT22;67962;47.310;9.642;2024-02-16T09:18:33;15.30;54.10
78649;DHT22;67962;47.310;9.642;2024-02-16T09:20:59;15.50;54.20
78649;DHT22;67962;47.310;9.642;2024-02-16T09:23:25;15.70;53.90
78649;DHT22;67962;47.310;9.642;2024-02-16T09:25:51;16.00;52.60
78649;DHT22;67962;47.310;9.642;2024-02-16T09:28:17;16.30;52.30
78649;DHT22;67962;47.310;9.642;2024-02-16T09:30:49;16.60;51.80
78649;DHT22;67962;47.310;9.642;2024-02-16T09:33:14;16.80;50.50
78649;DHT22;67962;47.310;9.642;2024-02-16T09:35:40;16.90;48.90
78649;DHT22;67962;47.310;9.642;2024-02-16T09:38:06;17.20;48.50
78649;DHT22;67962;47.310;9.642;2024-02-16T09:40:32;17.40;48.90
78649;DHT22;67962;47.310;9.642;2024-02-16T09:42:57;17.80;48.40
78649;DHT22;67962;47.310;9.642;2024-02-16T09:45:24;18.10;45.60
78649;DHT22;67962;47.310;9.642;2024-02-16T09:47:52;18.20;45.10
78649;DHT22;67962;47.310;9.642;2024-02-16T09:50:20;18.30;45.40
78649;DHT22;67962;47.310;9.642;2024-02-16T09:52:48;18.30;44.00
78649;DHT22;67962;47.310;9.642;2024-02-16T09:55:15;18.20;44.50
78649;DHT22;67962;47.310;9.642;2024-02-16T09:57:41;18.20;45.60
78649;DHT22;67962;47.310;9.642;2024-02-16T10:00:09;18.10;44.40
78649;DHT22;67962;47.310;9.642;2024-02-16T10:02:47;18.00;44.30
78649;DHT22;67962;47.310;9.642;2024-02-16T10:05:18;17.90;43.80
78649;DHT22;67962;47.310;9.642;2024-02-16T10:07:44;17.70;43.80
78649;DHT22;67962;47.310;9.642;2024-02-16T10:10:24;17.60;44.80
78649;DHT22;67962;47.310;9.642;2024-02-16T10:13:09;17.80;44.30
78649;DHT22;67962;47.310;9.642;2024-02-16T10:15:37;18.00;44.60
78649;DHT22;67962;47.310;9.642;2024-02-16T10:18:04;18.10;43.10
78649;DHT22;67962;47.310;9.642;2024-02-16T10:20:31;18.20;43.30
78649;DHT22;67962;47.310;9.642;2024-02-16T10:23:11;18.30;43.60
78649;DHT22;67962;47.310;9.642;2024-02-16T10:25:38;18.40;42.80
78649;DHT22;67962;47.310;9.642;2024-02-16T10:28:08;18.60;42.30
78649;DHT22;67962;47.310;9.642;2024-02-16T10:30:37;18.70;42.20
78649;DHT22;67962;47.310;9.642;2024-02-16T10:33:05;18.90;42.00
78649;DHT22;67962;47.310;9.642;2024-02-16T10:35:31;19.20;42.20
78649;DHT22;67962;47.310;9.642;2024-02-16T10:38:03;19.40;41.90
78649;DHT22;67962;47.310;9.642;2024-02-16T10:40:39;19.60;41.40
78649;DHT22;67962;47.310;9.642;2024-02-16T10:43:07;19.80;41.30
78649;DHT22;67962;47.310;9.642;2024-02-16T10:45:35;20.00;40.90
78649;DHT22;67962;47.310;9.642;2024-02-16T10:48:02;20.00;39.90
78649;DHT22;67962;47.310;9.642;2024-02-16T10:50:28;20.00;39.70
78649;DHT22;67962;47.310;9.642;2024-02-16T10:52:55;20.00;39.50
78649;DHT22;67962;47.310;9.642;2024-02-16T10:55:22;19.90;39.30
78649;DHT22;67962;47.310;9.642;2024-02-16T10:57:49;19.90;39.40
78649;DHT22;67962;47.310;9.642;2024-02-16T11:00:16;19.90;39.20
78649;DHT22;67962;47.310;9.642;2024-02-16T11:02:59;19.80;39.30
78649;DHT22;67962;47.310;9.642;2024-02-16T11:05:40;19.80;39.60
78649;DHT22;67962;47.310;9.642;2024-02-16T11:08:16;19.70;40.60
78649;DHT22;67962;47.310;9.642;2024-02-16T11:11:01;19.60;40.60
78649;DHT22;67962;47.310;9.642;2024-02-16T11:13:33;19.60;40.20
78649;DHT22;67962;47.310;9.642;2024-02-16T11:16:07;19.70;40.40
78649;DHT22;67962;47.310;9.642;2024-02-16T11:18:38;19.70;39.80
78649;DHT22;67962;47.310;9.642;2024-02-16T11:21:05;19.80;39.90
78649;DHT22;67962;47.310;9.642;2024-02-16T11:23:34;19.80;39.50
78649;DHT22;67962;47.310;9.642;2024-02-16T11:26:04;19.70;38.90
78649;DHT22;67962;47.310;9.642;2024-02-16T11:28:34;19.70;39.40
78649;DHT22;67962;47.310;9.642;2024-02-16T11:31:00;19.80;39.70
78649;DHT22;67962;47.310;9.642;2024-02-16T11:33:26;19.80;40.00
78649;DHT22;67962;47.310;9.642;2024-02-16T11:35:59;19.80;40.00
78649;DHT22;67962;47.310;9.642;2024-02-16T11:38:25;19.90;40.10
78649;DHT22;67962;47.310;9.642;2024-02-16T11:43:21;20.10;39.70
78649;DHT22;67962;47.310;9.642;2024-02-16T11:45:47;20.10;39.80
78649;DHT22;67962;47.310;9.642;2024-02-16T11:48:13;20.10;39.90
78649;DHT22;67962;47.310;9.642;2024-02-16T11:50:44;20.10;39.40
78649;DHT22;67962;47.310;9.642;2024-02-16T11:53:09;19.90;38.30
78649;DHT22;67962;47.310;9.642;2024-02-16T11:55:35;19.80;38.80
78649;DHT22;67962;47.310;9.642;2024-02-16T11:58:02;19.80;39.40
78649;DHT22;67962;47.310;9.642;2024-02-16T12:00:28;19.70;38.30
78649;DHT22;67962;47.310;9.642;2024-02-16T12:03:00;19.60;39.00
78649;DHT22;67962;47.310;9.642;2024-02-16T12:05:26;19.70;39.10
78649;DHT22;67962;47.310;9.642;2024-02-16T12:07:52;19.80;39.10
78649;DHT22;67962;47.310;9.642;2024-02-16T12:10:18;19.70;38.40
78649;DHT22;67962;47.310;9.642;2024-02-16T12:12:43;19.50;38.60
78649;DHT22;67962;47.310;9.642;2024-02-16T12:15:10;19.60;36.60
78649;DHT22;67962;47.310;9.642;2024-02-16T12:17:37;19.20;36.30
78649;DHT22;67962;47.310;9.642;2024-02-16T12:20:02;18.90;37.00
78649;DHT22;67962;47.310;9.642;2024-02-16T12:22:28;18.70;37.40
78649;DHT22;67962;47.310;9.642;2024-02-16T12:24:54;18.60;38.00
78649;DHT22;67962;47.310;9.642;2024-02-16T12:27:19;18.70;38.20
78649;DHT22;67962;47.310;9.642;2024-02-16T12:29:45;18.70;37.70
78649;DHT22;67962;47.310;9.642;2024-02-16T12:32:11;18.60;38.80
78649;DHT22;67962;47.310;9.642;2024-02-16T12:34:37;18.50;40.00
78649;DHT22;67962;47.310;9.642;2024-02-16T12:37:06;18.50;39.70
78649;DHT22;67962;47.310;9.642;2024-02-16T12:39:37;18.70;40.00
78649;DHT22;67962;47.310;9.642;2024-02-16T12:42:03;18.80;39.80
78649;DHT22;67962;47.310;9.642;2024-02-16T12:44:29;18.60;40.10
78649;DHT22;67962;47.310;9.642;2024-02-16T12:46:56;18.50;41.00
78649;DHT22;67962;47.310;9.642;2024-02-16T12:49:21;18.60;42.00
78649;DHT22;67962;47.310;9.642;2024-02-16T12:51:51;18.70;41.60
78649;DHT22;67962;47.310;9.642;2024-02-16T12:54:17;18.70;41.50
78649;DHT22;67962;47.310;9.642;2024-02-16T12:56:48;18.80;41.70
78649;DHT22;67962;47.310;9.642;2024-02-16T12:59:14;18.90;40.60
78649;DHT22;67962;47.310;9.642;2024-02-16T13:01:40;19.00;41.10
78649;DHT22;67962;47.310;9.642;2024-02-16T13:04:06;19.10;40.50
78649;DHT22;67962;47.310;9.642;2024-02-16T13:06:32;19.20;38.80
78649;DHT22;67962;47.310;9.642;2024-02-16T13:08:58;19.10;39.60
78649;DHT22;67962;47.310;9.642;2024-02-16T13:11:25;19.20;41.10
78649;DHT22;67962;47.310;9.642;2024-02-16T13:13:50;19.30;40.80
78649;DHT22;67962;47.310;9.642;2024-02-16T13:16:17;19.50;41.10
78649;DHT22;67962;47.310;9.642;2024-02-16T13:18:43;19.60;41.70
78649;DHT22;67962;47.310;9.642;2024-02-16T13:21:09;19.70;41.10
78649;DHT22;67962;47.310;9.642;2024-02-16T13:23:34;19.80;41.20
78649;DHT22;67962;47.310;9.642;2024-02-16T13:26:00;19.90;41.00
78649;DHT22;67962;47.310;9.642;2024-02-16T13:28:26;20.10;41.10
78649;DHT22;67962;47.310;9.642;2024-02-16T13:30:51;20.30;41.00
78649;DHT22;67962;47.310;9.642;2024-02-16T13:33:17;20.40;41.10
78649;DHT22;67962;47.310;9.642;2024-02-16T13:35:43;20.50;41.60
78649;DHT22;67962;47.310;9.642;2024-02-16T13:38:08;20.60;40.60
78649;DHT22;67962;47.310;9.642;2024-02-16T13:40:34;20.60;40.50
78649;DHT22;67962;47.310;9.642;2024-02-16T13:43:01;20.60;39.90
78649;DHT22;67962;47.310;9.642;2024-02-16T13:45:48;20.50;40.80
78649;DHT22;67962;47.310;9.642;2024-02-16T13:48:15;20.40;40.60
78649;DHT22;67962;47.310;9.642;2024-02-16T13:50:44;20.40;41.50
78649;DHT22;67962;47.310;9.642;2024-02-16T13:53:10;20.50;41.90
78649;DHT22;67962;47.310;9.642;2024-02-16T13:55:36;20.40;40.90
78649;DHT22;67962;47.310;9.642;2024-02-16T13:58:02;20.30;42.10
78649;DHT22;67962;47.310;9.642;2024-02-16T14:00:27;20.20;41.90
78649;DHT22;67962;47.310;9.642;2024-02-16T14:02:53;20.10;42.40
78649;DHT22;67962;47.310;9.642;2024-02-16T14:05:19;19.90;43.00
78649;DHT22;67962;47.310;9.642;2024-02-16T14:07:44;19.90;43.20
78649;DHT22;67962;47.310;9.642;2024-02-16T14:10:10;19.80;43.30
78649;DHT22;67962;47.310;9.642;2024-02-16T14:12:36;19.80;43.20
78649;DHT22;67962;47.310;9.642;2024-02-16T14:15:02;19.80;43.20
78649;DHT22;67962;47.310;9.642;2024-02-16T14:17:28;19.70;43.30
78649;DHT22;67962;47.310;9.642;2024-02-16T14:19:54;19.60;44.80
78649;DHT22;67962;47.310;9.642;2024-02-16T14:22:19;19.40;44.30
78649;DHT22;67962;47.310;9.642;2024-02-16T14:24:45;19.30;44.70
78649;DHT22;67962;47.310;9.642;2024-02-16T14:27:10;19.10;44.90
78649;DHT22;67962;47.310;9.642;2024-02-16T14:29:36;19.10;45.40
78649;DHT22;67962;47.310;9.642;2024-02-16T14:32:02;19.20;45.40
78649;DHT22;67962;47.310;9.642;2024-02-16T14:34:28;19.20;45.70
78649;DHT22;67962;47.310;9.642;2024-02-16T14:36:54;19.30;45.70
78649;DHT22;67962;47.310;9.642;2024-02-16T14:39:20;19.30;45.40
78649;DHT22;67962;47.310;9.642;2024-02-16T14:41:46;19.40;45.40
78649;DHT22;67962;47.310;9.642;2024-02-16T14:44:11;19.40;45.00
78649;DHT22;67962;47.310;9.642;2024-02-16T14:46:37;19.30;45.20
78649;DHT22;67962;47.310;9.642;2024-02-16T14:49:02;19.30;45.50
78649;DHT22;67962;47.310;9.642;2024-02-16T14:51:28;19.30;45.80
78649;DHT22;67962;47.310;9.642;2024-02-16T14:53:54;19.40;46.40
78649;DHT22;67962;47.310;9.642;2024-02-16T14:56:19;19.40;45.80
78649;DHT22;67962;47.310;9.642;2024-02-16T14:58:47;19.30;45.80
78649;DHT22;67962;47.310;9.642;2024-02-16T15:01:13;19.30;46.00
78649;DHT22;67962;47.310;9.642;2024-02-16T15:03:39;19.30;46.20
78649;DHT22;67962;47.310;9.642;2024-02-16T15:06:05;19.30;46.90
78649;DHT22;67962;47.310;9.642;2024-02-16T15:08:31;19.20;46.80
78649;DHT22;67962;47.310;9.642;2024-02-16T15:10:57;19.20;47.20
78649;DHT22;67962;47.310;9.642;2024-02-16T15:13:23;19.10;47.60
78649;DHT22;67962;47.310;9.642;2024-02-16T15:15:50;19.00;47.70
78649;DHT22;67962;47.310;9.642;2024-02-16T15:18:16;18.90;48.00
78649;DHT22;67962;47.310;9.642;2024-02-16T15:20:41;18.90;48.00
78649;DHT22;67962;47.310;9.642;2024-02-16T15:23:07;18.90;47.90
78649;DHT22;67962;47.310;9.642;2024-02-16T15:25:33;18.80;47.80
78649;DHT22;67962;47.310;9.642;2024-02-16T15:27:58;18.80;48.10
78649;DHT22;67962;47.310;9.642;2024-02-16T15:30:24;18.80;48.80
78649;DHT22;67962;47.310;9.642;2024-02-16T15:32:50;18.70;48.80
78649;DHT22;67962;47.310;9.642;2024-02-16T15:35:16;18.60;48.70
78649;DHT22;67962;47.310;9.642;2024-02-16T15:37:42;18.60;49.10